Suttons Bay, MI

7:13 PM EST on December 28, 2014 (GMT -0500)
South Shore Drive | Change Station
CLOSE
Current Station
Personal Weather Station
Location: Suttons Bay, MI
Elevation: 597 ft
Nearby Weather Stations

Elev 597 ft 44.97 °N, 85.64 °W | Updated 6 seconds ago

Overcast
Overcast
28.0 °F
Feels Like 28 °F
N
0.0
Wind Variable Wind from NW
Gusts 9.0 mph

Today
High -- | Low -- °F
--% Chance of Precip.
Yesterday
High -- | Low -- °F
Precip. -- in
8:20 AM 5:08 PM
First Quarter, 53% visible
Pressure 30.17 in
Visibility 10.0 miles
Clouds Overcast 3700 ft
Windchill 28 °F
Dew Point 20 °F
Humidity 71%
Rainfall 0.00 in
Snow Depth Not available.
UV 0 out of 12
Pollen .10 out of 12
Air Quality Not available.
Flu Activity Not available.
METAR KTVC 282353Z 30007KT 10SM OVC037 M02/M09 A3014 RMK AO2 SNE23 SLP217 P0000 60000 T10221089 11011 21022 51020

More Conditions Fewer Conditions

Pressure 30.17 in
Visibility 10.0 miles
Clouds Overcast 3700 ft
Windchill 28 °F
Dew Point 20 °F
Humidity 71%
Rainfall 0.00 in
Snow Depth Not available.
UV 0 out of 12
Pollen .10 out of 12
Air Quality Not available.
Flu Activity Not available.
METAR KTVC 282353Z 30007KT 10SM OVC037 M02/M09 A3014 RMK AO2 SNE23 SLP217 P0000 60000 T10221089 11011 21022 51020

More Conditions Fewer Conditions

Nowcast | as of 7:00 PM EST on December 28, 2014

At 8 PM...numerous snow showers. Temperature 26. Northwest winds 13 mph with gusts to 25 mph. At 10 PM...numerous snow showers. Temperature 24. Northwest winds 11 mph with gusts to 25 mph. At 12 am...numerous snow showers. Temperature 23. Northwest winds 10 mph. At 2 am...mostly cloudy. Scattered snow showers. Temperature 22. North winds 8 mph with gusts to 20 mph.

×

10-Day Weather Forecast

Almanac

Astronomy

Dec. 28, 2014 Rise Set
Actual Time
Civil Twilight
Nautical Twilight
Astronomical Twilight
Moon
Length of Visible Light
Length of Day
Tomorrow will be .
, % of the Moon is Illuminated

Today's Extremes

State Highs State Lows

Community

WunderPhotos

Upload Photos

1,781,468 photos uploaded!

WunderBlogs® & News

Nearby

Air Quality

  Air Quality AQ Index Pollutant
Not available.

Snow Depth

Station Depth Elevation

Earthquake Activity

City Distance Mag. Time & Date
Minimum magnitude displayed is 2.5.

Coastal Water Temperatures

Place Temperature

Nearby Weather Stations